Time;durP1;ratioP1;P1;durP2;ratioP2;P2;SDS_P1;SDS_P2;PMS_P1;PMS_P2;Temp;Humidity;BMP_temperature;BMP_pressure;BME280_temperature;BME280_humidity;BME280_pressure;Samples;Min_cycle;Max_cycle;Signal;HPM_P1;HPM_P2
2021/05/06 00:02:52;;;;;;;1.73;1.05;;;17.60;59.80;;;;;;10561808;28;20054;-59
2021/05/06 00:34:28;;;;;;;0.97;0.57;;;17.60;59.50;;;;;;10550049;28;20047;-58
2021/05/06 00:39:34;;;;;;;1.45;0.90;;;17.60;59.50;;;;;;10567274;28;20052;-59
2021/05/06 01:05:49;;;;;;;2.40;0.57;;;17.60;59.40;;;;;;10539806;28;20032;-59
2021/05/06 01:15:58;;;;;;;1.08;0.65;;;17.60;59.30;;;;;;10557450;28;20028;-59
2021/05/06 01:20:59;;;;;;;1.05;0.60;;;17.60;59.30;;;;;;10539737;28;20028;-59
2021/05/06 01:26:18;;;;;;;2.05;0.63;;;17.60;59.30;;;;;;10548136;28;20107;-59
2021/05/06 01:31:22;;;;;;;0.80;0.50;;;17.60;59.20;;;;;;10548117;28;20040;-59
2021/05/06 01:36:25;;;;;;;2.42;0.85;;;17.60;59.20;;;;;;10540629;28;20535;-60
2021/05/06 02:02:12;;;;;;;1.15;0.45;;;17.60;59.00;;;;;;10537850;28;20032;-59
2021/05/06 02:07:12;;;;;;;1.73;0.60;;;17.60;59.10;;;;;;10538738;28;20449;-59
2021/05/06 02:12:15;;;;;;;1.10;0.60;;;17.70;59.00;;;;;;10555351;28;20032;-59
2021/05/06 02:17:16;;;;;;;2.08;0.85;;;17.60;59.00;;;;;;10538644;28;20149;-59
2021/05/06 02:22:18;;;;;;;1.27;0.47;;;17.60;59.00;;;;;;10520446;28;20062;-59
2021/05/06 02:27:19;;;;;;;1.02;0.52;;;17.60;58.90;;;;;;10566243;28;20042;-60
2021/05/06 02:32:20;;;;;;;1.10;0.77;;;17.60;58.80;;;;;;10519934;28;20028;-60
2021/05/06 02:37:21;;;;;;;1.05;0.68;;;17.60;58.80;;;;;;10538118;28;20059;-59
2021/05/06 02:42:22;;;;;;;0.93;0.60;;;17.60;58.80;;;;;;10560659;28;20054;-58
2021/05/06 02:47:23;;;;;;;1.55;0.82;;;17.60;58.80;;;;;;10554340;28;20107;-59
2021/05/06 02:52:33;;;;;;;1.10;0.63;;;17.60;58.80;;;;;;10537414;28;20111;-59
2021/05/06 03:02:56;;;;;;;1.45;0.60;;;17.60;58.80;;;;;;10542485;28;20032;-59
2021/05/06 03:23:58;;;;;;;1.30;0.50;;;17.60;58.70;;;;;;10446437;28;20044;-59
2021/05/06 03:29:15;;;;;;;0.77;0.47;;;17.60;58.70;;;;;;10523898;28;20059;-59
2021/05/06 04:26:45;;;;;;;0.80;0.40;;;17.70;58.50;;;;;;10559476;28;20040;-59
2021/05/06 04:37:05;;;;;;;1.20;0.50;;;17.60;58.40;;;;;;10539593;28;20475;-59
2021/05/06 04:42:44;;;;;;;0.38;0.30;;;17.70;58.50;;;;;;10557619;28;20364;-59
2021/05/06 05:03:44;;;;;;;3.08;0.60;;;17.60;58.40;;;;;;10528269;28;20487;-59
2021/05/06 05:24:44;;;;;;;3.83;0.95;;;17.70;60.40;;;;;;10564148;28;20052;-57
2021/05/06 05:29:45;;;;;;;6.82;1.10;;;17.70;60.50;;;;;;10561468;28;20408;-58
2021/05/06 05:35:09;;;;;;;4.13;1.00;;;17.70;60.30;;;;;;10554003;28;20075;-58
2021/05/06 05:55:55;;;;;;;14.27;1.60;;;17.60;60.30;;;;;;10552611;28;20040;-57
2021/05/06 06:00:56;;;;;;;11.00;2.17;;;17.50;59.60;;;;;;10544936;28;20386;-57
2021/05/06 06:05:57;;;;;;;6.25;1.83;;;17.50;59.90;;;;;;10556695;28;20042;-58
2021/05/06 06:10:58;;;;;;;9.85;2.05;;;17.50;59.40;;;;;;10521850;28;20089;-58
2021/05/06 06:16:09;;;;;;;9.88;2.13;;;17.50;59.40;;;;;;10549951;28;20027;-58
2021/05/06 06:26:26;;;;;;;7.05;1.92;;;17.50;59.20;;;;;;10559741;28;20032;-58
2021/05/06 06:31:36;;;;;;;3.88;1.70;;;17.50;59.80;;;;;;10559592;28;20093;-58
2021/05/06 06:36:44;;;;;;;5.28;1.77;;;17.50;59.00;;;;;;10546527;28;20043;-58
2021/05/06 06:41:45;;;;;;;5.18;1.65;;;17.60;59.00;;;;;;10543049;28;20049;-58
2021/05/06 06:47:00;;;;;;;4.35;1.67;;;17.60;58.90;;;;;;10581544;28;20522;-58
2021/05/06 06:52:04;;;;;;;3.63;1.58;;;17.60;58.80;;;;;;10551535;28;20161;-58
2021/05/06 06:57:06;;;;;;;3.53;1.90;;;17.60;58.90;;;;;;10569262;28;20028;-58
2021/05/06 07:02:07;;;;;;;4.78;1.80;;;17.60;58.80;;;;;;10587573;28;20427;-58
2021/05/06 07:07:08;;;;;;;5.45;1.20;;;17.60;59.00;;;;;;10562889;28;20168;-58
2021/05/06 07:12:09;;;;;;;3.33;1.50;;;17.50;59.00;;;;;;10586829;28;20102;-58
2021/05/06 07:17:09;;;;;;;3.55;1.10;;;17.50;59.00;;;;;;10571799;28;20063;-54
2021/05/06 07:22:10;;;;;;;3.55;1.30;;;17.50;59.00;;;;;;10551875;28;20055;-58
2021/05/06 07:27:11;;;;;;;5.85;1.63;;;17.50;59.00;;;;;;10552178;28;20050;-58
2021/05/06 07:32:12;;;;;;;4.53;1.30;;;17.50;58.90;;;;;;10559926;28;20118;-58
2021/05/06 07:37:12;;;;;;;2.08;1.00;;;17.50;59.00;;;;;;10563334;28;20082;-58
2021/05/06 07:42:13;;;;;;;2.08;1.15;;;17.50;58.90;;;;;;10557102;28;20155;-58
2021/05/06 07:47:14;;;;;;;3.33;1.15;;;17.50;59.00;;;;;;10543165;28;20103;-58
2021/05/06 07:52:18;;;;;;;2.33;1.20;;;17.50;58.90;;;;;;10551320;28;20042;-59
2021/05/06 07:57:19;;;;;;;2.65;1.10;;;17.50;58.80;;;;;;10556600;28;20035;-59
2021/05/06 08:02:21;;;;;;;3.50;1.45;;;17.50;58.90;;;;;;10524785;28;20031;-58
2021/05/06 08:07:22;;;;;;;1.20;1.00;;;17.50;58.90;;;;;;10571445;28;20506;-59
2021/05/06 08:12:24;;;;;;;3.20;1.08;;;17.40;58.90;;;;;;10584942;28;20115;-58
2021/05/06 08:17:24;;;;;;;1.30;0.90;;;17.50;58.90;;;;;;10584769;28;20034;-58
2021/05/06 08:22:25;;;;;;;2.65;1.00;;;17.50;58.80;;;;;;10584294;28;20028;-59
2021/05/06 08:27:26;;;;;;;2.92;1.08;;;17.50;58.80;;;;;;10567230;28;20107;-58
2021/05/06 08:32:27;;;;;;;2.22;0.95;;;17.40;58.80;;;;;;10541486;28;20028;-58
2021/05/06 08:37:28;;;;;;;2.38;0.70;;;17.40;58.80;;;;;;10541264;28;20187;-58
2021/05/06 08:42:29;;;;;;;1.42;1.00;;;17.40;58.80;;;;;;10536900;28;20115;-57
2021/05/06 08:47:32;;;;;;;2.75;0.98;;;17.40;58.80;;;;;;10541139;28;20051;-58
2021/05/06 08:52:34;;;;;;;2.90;1.27;;;17.50;58.80;;;;;;10522902;28;20032;-58
2021/05/06 08:57:35;;;;;;;2.63;1.00;;;17.50;58.70;;;;;;10536859;28;20081;-57
2021/05/06 09:02:36;;;;;;;1.77;0.70;;;17.50;58.80;;;;;;10582569;28;20455;-58
2021/05/06 09:07:46;;;;;;;1.50;1.00;;;17.50;58.70;;;;;;10562973;28;20369;-58
2021/05/06 09:12:47;;;;;;;3.33;1.35;;;17.50;58.70;;;;;;10539849;28;20035;-58
2021/05/06 09:17:48;;;;;;;2.22;1.25;;;17.40;58.70;;;;;;10542521;28;20033;-55
2021/05/06 09:22:51;;;;;;;2.35;1.10;;;17.40;58.80;;;;;;10547810;28;20036;-58
2021/05/06 09:28:32;;;;;;;1.35;0.90;;;17.40;58.90;;;;;;10573397;28;20036;-58
2021/05/06 09:33:39;;;;;;;2.22;1.15;;;17.40;59.50;;;;;;10473542;28;20101;-58
2021/05/06 09:38:49;;;;;;;2.05;0.98;;;17.30;59.40;;;;;;10556251;28;20107;-58
2021/05/06 09:43:51;;;;;;;2.47;0.80;;;17.30;59.60;;;;;;10552578;28;20051;-57
2021/05/06 09:48:57;;;;;;;1.40;0.75;;;17.30;59.70;;;;;;10532023;28;20687;-57
2021/05/06 09:53:59;;;;;;;1.58;0.95;;;17.30;59.80;;;;;;10551259;28;20057;-58
2021/05/06 09:59:00;;;;;;;2.78;1.02;;;17.30;59.90;;;;;;10566911;28;20032;-58
2021/05/06 10:04:21;;;;;;;1.20;0.82;;;17.20;59.80;;;;;;10560351;28;20525;-58
2021/05/06 10:09:22;;;;;;;1.30;0.80;;;17.20;59.80;;;;;;10561640;28;20028;-57
2021/05/06 10:14:23;;;;;;;2.45;1.00;;;17.20;59.80;;;;;;10547936;28;20464;-58
2021/05/06 10:19:24;;;;;;;1.80;1.02;;;17.30;59.90;;;;;;10519993;28;20039;-57
2021/05/06 10:24:26;;;;;;;2.20;1.13;;;17.30;59.90;;;;;;10558452;28;20449;-59
2021/05/06 10:29:28;;;;;;;1.15;0.80;;;17.30;59.80;;;;;;10571267;28;20089;-57
2021/05/06 10:34:33;;;;;;;1.65;1.20;;;17.30;59.80;;;;;;10570917;28;20359;-57
2021/05/06 10:39:47;;;;;;;3.17;1.13;;;17.30;59.90;;;;;;10555774;28;20031;-58
2021/05/06 10:44:47;;;;;;;2.70;1.05;;;17.30;59.90;;;;;;10557481;28;20058;-59
2021/05/06 10:50:06;;;;;;;2.00;0.90;;;17.30;59.90;;;;;;10570534;28;20416;-59
2021/05/06 10:55:10;;;;;;;1.83;1.00;;;17.30;59.80;;;;;;10574701;28;20032;-56
2021/05/06 11:00:23;;;;;;;2.72;1.05;;;17.30;59.70;;;;;;10545874;28;20032;-57
2021/05/06 11:05:27;;;;;;;2.20;0.75;;;17.40;59.80;;;;;;10545854;28;20100;-56
2021/05/06 11:10:27;;;;;;;3.53;1.17;;;17.30;59.60;;;;;;10544858;28;20036;-52
2021/05/06 11:15:30;;;;;;;1.85;0.98;;;17.30;59.70;;;;;;10565941;28;20114;-59
2021/05/06 11:20:31;;;;;;;2.13;1.38;;;17.30;59.60;;;;;;10543500;28;20031;-58
2021/05/06 11:25:37;;;;;;;4.35;1.42;;;17.30;59.90;;;;;;10548287;28;20032;-58
2021/05/06 11:30:46;;;;;;;1.10;1.00;;;17.30;59.70;;;;;;10544290;28;20036;-58
2021/05/06 11:36:11;;;;;;;2.27;1.27;;;17.30;59.90;;;;;;10524647;28;20515;-57
2021/05/06 11:41:19;;;;;;;2.03;0.85;;;17.30;59.90;;;;;;10556635;28;20467;-58
2021/05/06 11:46:26;;;;;;;1.63;0.95;;;17.20;59.90;;;;;;10556977;28;20024;-57
2021/05/06 11:51:44;;;;;;;3.15;1.23;;;17.30;60.00;;;;;;10543487;28;20036;-57
2021/05/06 11:56:57;;;;;;;2.05;1.23;;;17.20;60.00;;;;;;10558207;28;20020;-57
2021/05/06 12:02:06;;;;;;;1.83;1.00;;;17.20;60.10;;;;;;10563021;28;20035;-57
2021/05/06 12:07:16;;;;;;;;;;;17.10;60.10;;;;;;10565910;28;20567;-58
2021/05/06 12:12:25;;;;;;;7.15;1.20;;;17.20;60.20;;;;;;10543565;28;19950;-58
2021/05/06 12:17:26;;;;;;;;;;;17.10;60.30;;;;;;10550896;28;20024;-58
2021/05/06 12:22:27;;;;;;;0.82;0.65;;;17.10;60.30;;;;;;10545119;28;19908;-58
2021/05/06 12:27:29;;;;;;;1.77;1.05;;;17.10;60.30;;;;;;10546688;28;20471;-59
2021/05/06 12:32:33;;;;;;;1.88;0.90;;;17.20;60.20;;;;;;10584018;28;20034;-57
2021/05/06 12:37:37;;;;;;;1.10;0.75;;;17.20;60.00;;;;;;10553811;28;20040;-58
2021/05/06 12:42:38;;;;;;;1.33;0.90;;;17.20;59.90;;;;;;10526953;28;20024;-57
2021/05/06 12:47:49;;;;;;;1.25;0.95;;;17.20;59.90;;;;;;10550202;28;20024;-58
2021/05/06 12:52:56;;;;;;;3.17;0.98;;;17.30;59.90;;;;;;10540687;28;20031;-57
2021/05/06 12:58:15;;;;;;;1.33;0.90;;;17.30;59.90;;;;;;10540873;28;20028;-57
2021/05/06 13:03:16;;;;;;;2.05;1.00;;;17.20;59.90;;;;;;10552562;28;20035;-57
2021/05/06 13:08:18;;;;;;;1.05;0.85;;;17.30;60.00;;;;;;10545634;28;20510;-57
2021/05/06 13:13:45;;;;;;;1.15;0.75;;;17.20;60.00;;;;;;10556750;28;20160;-57
2021/05/06 13:19:01;;;;;;;1.70;0.82;;;17.20;60.80;;;;;;10561200;28;20059;-58
2021/05/06 13:24:07;;;;;;;1.92;0.98;;;17.20;60.30;;;;;;10579018;28;20032;-58
2021/05/06 13:29:15;;;;;;;0.90;0.68;;;17.20;60.20;;;;;;10539416;28;20039;-58
2021/05/06 13:34:24;;;;;;;1.75;1.17;;;17.20;60.00;;;;;;10539489;28;20028;-58
2021/05/06 13:39:25;;;;;;;;;;;17.30;60.00;;;;;;10533013;28;20059;-57
2021/05/06 13:44:30;;;;;;;1.00;0.70;;;17.30;60.00;;;;;;10539109;28;19915;-58
2021/05/06 13:49:33;;;;;;;1.40;0.80;;;17.30;60.00;;;;;;10538867;28;20060;-58
2021/05/06 13:54:33;;;;;;;1.55;0.80;;;17.20;60.10;;;;;;10520772;28;20048;-57
2021/05/06 13:59:34;;;;;;;1.20;0.60;;;17.20;60.10;;;;;;10537967;28;20036;-58
2021/05/06 14:04:35;;;;;;;1.63;0.90;;;17.20;60.10;;;;;;10552193;28;20522;-58
2021/05/06 14:09:36;;;;;;;1.70;0.80;;;17.30;60.10;;;;;;10554955;28;20030;-57
2021/05/06 14:14:37;;;;;;;1.05;0.80;;;17.30;60.00;;;;;;10547025;28;20039;-58
2021/05/06 14:19:37;;;;;;;1.60;1.00;;;17.30;60.00;;;;;;10533935;28;20020;-58
2021/05/06 14:24:38;;;;;;;1.48;1.30;;;17.30;60.00;;;;;;10546095;28;20102;-58
2021/05/06 14:29:39;;;;;;;2.35;0.90;;;17.30;60.00;;;;;;10538617;28;20114;-59
2021/05/06 14:34:39;;;;;;;1.70;0.70;;;17.30;60.00;;;;;;10537837;28;20060;-58
2021/05/06 14:39:40;;;;;;;1.02;0.73;;;17.20;60.00;;;;;;10536098;28;20153;-58
2021/05/06 14:44:41;;;;;;;2.40;0.90;;;17.30;60.10;;;;;;10537704;28;20095;-57
2021/05/06 14:49:42;;;;;;;0.82;0.77;;;17.30;60.00;;;;;;10519655;28;20388;-58
2021/05/06 14:54:45;;;;;;;1.73;0.80;;;17.30;59.90;;;;;;10537624;28;20028;-58
2021/05/06 14:59:45;;;;;;;1.48;0.82;;;17.40;59.90;;;;;;10537732;28;20387;-58
2021/05/06 15:04:46;;;;;;;1.70;1.45;;;17.40;59.80;;;;;;10550955;28;20103;-58
2021/05/06 15:09:47;;;;;;;0.85;0.65;;;17.30;59.80;;;;;;10560203;28;20027;-58
2021/05/06 15:14:47;;;;;;;0.80;0.63;;;17.30;59.90;;;;;;10551756;28;20063;-57
2021/05/06 15:19:49;;;;;;;1.52;0.90;;;17.30;59.90;;;;;;10526330;28;20034;-58
2021/05/06 15:24:49;;;;;;;1.88;1.30;;;17.30;60.00;;;;;;10565963;28;20217;-59
2021/05/06 15:29:52;;;;;;;1.83;0.50;;;17.30;60.00;;;;;;10547691;28;20146;-59
2021/05/06 15:34:55;;;;;;;2.17;0.70;;;17.30;60.00;;;;;;10554056;28;20048;-60
2021/05/06 15:39:56;;;;;;;1.33;0.55;;;17.30;59.80;;;;;;10565449;28;20081;-59
2021/05/06 15:44:57;;;;;;;2.35;1.08;;;17.30;59.70;;;;;;10522554;28;20133;-61
2021/05/06 15:49:57;;;;;;;1.58;1.00;;;17.30;59.60;;;;;;10567197;28;20532;-59
2021/05/06 15:54:58;;;;;;;3.67;1.27;;;17.30;59.40;;;;;;10562753;28;20039;-59
2021/05/06 15:59:59;;;;;;;8.30;1.90;;;17.40;58.60;;;;;;10556167;28;20460;-59
2021/05/06 16:05:00;;;;;;;5.45;1.58;;;17.40;59.10;;;;;;10563512;28;20107;-58
2021/05/06 16:10:00;;;;;;;9.02;1.60;;;17.50;60.90;;;;;;10562891;28;20020;-58
2021/05/06 16:15:02;;;;;;;6.95;1.70;;;17.50;60.40;;;;;;10564753;28;20104;-57
2021/05/06 16:20:12;;;;;;;8.85;1.13;;;17.60;60.40;;;;;;10565277;28;20031;-60
2021/05/06 16:25:14;;;;;;;;;;;17.60;60.10;;;;;;10564922;28;20452;-59
2021/05/06 16:30:15;;;;;;;18.98;2.03;;;17.70;60.00;;;;;;10575803;28;20380;-59
2021/05/06 16:35:20;;;;;;;12.52;2.63;;;17.60;60.70;;;;;;10552844;28;20476;-59
2021/05/06 16:40:34;;;;;;;12.40;2.42;;;17.60;61.20;;;;;;10524518;28;20369;-58
2021/05/06 16:45:39;;;;;;;18.80;2.85;;;17.60;61.80;;;;;;10558184;28;20475;-56
2021/05/06 16:50:42;;;;;;;15.63;2.38;;;17.60;61.70;;;;;;10564244;28;20050;-57
2021/05/06 16:55:45;;;;;;;17.58;3.00;;;17.70;62.90;;;;;;10561832;28;20435;-57
2021/05/06 17:00:46;;;;;;;9.63;1.98;;;17.60;61.90;;;;;;10556299;28;20032;-57
2021/05/06 17:05:47;;;;;;;11.75;2.03;;;17.60;61.80;;;;;;10536099;28;20103;-57
2021/05/06 17:10:47;;;;;;;10.20;2.17;;;17.60;61.80;;;;;;10566520;28;20118;-56
2021/05/06 17:15:48;;;;;;;10.88;1.98;;;17.50;61.80;;;;;;10544405;28;20492;-58
2021/05/06 17:20:49;;;;;;;5.53;2.08;;;17.50;61.70;;;;;;10546214;28;20031;-58
2021/05/06 17:25:51;;;;;;;7.60;2.22;;;17.50;61.40;;;;;;10542415;28;20051;-58
2021/05/06 17:30:53;;;;;;;8.70;1.92;;;17.40;61.30;;;;;;10539165;28;20372;-58
2021/05/06 17:35:54;;;;;;;11.55;2.65;;;17.40;61.20;;;;;;10539560;28;20063;-57
2021/05/06 17:40:54;;;;;;;5.13;2.00;;;17.40;61.20;;;;;;10552330;28;20040;-56
2021/05/06 17:45:57;;;;;;;5.50;1.70;;;17.30;61.10;;;;;;10565607;28;20027;-57
2021/05/06 17:50:58;;;;;;;7.82;1.70;;;17.40;61.10;;;;;;10572125;28;20134;-57
2021/05/06 17:55:58;;;;;;;4.80;1.70;;;17.30;61.00;;;;;;10523502;28;20032;-57
2021/05/06 18:01:01;;;;;;;6.85;1.77;;;17.30;61.00;;;;;;10533885;28;20212;-56
2021/05/06 18:06:01;;;;;;;5.75;1.45;;;17.30;61.00;;;;;;10544495;28;20129;-57
2021/05/06 18:11:06;;;;;;;6.38;1.88;;;17.30;61.00;;;;;;10561654;28;20124;-57
2021/05/06 18:16:06;;;;;;;6.22;2.00;;;17.30;60.90;;;;;;10541124;28;20028;-56
2021/05/06 18:21:07;;;;;;;8.35;1.70;;;17.40;60.90;;;;;;10537666;28;20558;-55
2021/05/06 18:26:13;;;;;;;6.70;2.30;;;17.40;60.80;;;;;;10559478;28;20107;-57
2021/05/06 18:31:14;;;;;;;5.22;1.60;;;17.40;60.70;;;;;;10562014;28;20464;-60
2021/05/06 18:36:14;;;;;;;5.25;2.05;;;17.40;60.60;;;;;;10555533;28;20048;-57
2021/05/06 18:41:15;;;;;;;4.95;2.08;;;17.40;60.90;;;;;;10547930;28;20030;-55
2021/05/06 18:46:17;;;;;;;5.40;1.80;;;17.40;61.70;;;;;;10557605;28;20032;-58
2021/05/06 18:51:18;;;;;;;8.48;1.90;;;17.50;61.90;;;;;;10563905;28;20032;-56
2021/05/06 18:56:21;;;;;;;7.50;1.65;;;17.50;61.80;;;;;;10570470;28;20084;-57
2021/05/06 19:01:21;;;;;;;5.35;1.90;;;17.50;62.40;;;;;;10564454;28;20023;-57
2021/05/06 19:06:22;;;;;;;5.55;1.90;;;17.50;61.90;;;;;;10568862;28;20107;-58
2021/05/06 19:11:23;;;;;;;3.25;1.48;;;17.50;61.90;;;;;;10566774;28;20024;-58
2021/05/06 19:16:24;;;;;;;3.80;1.60;;;17.50;61.80;;;;;;10572380;28;20053;-57
2021/05/06 19:21:24;;;;;;;4.07;1.38;;;17.40;61.80;;;;;;10569281;28;20827;-58
2021/05/06 19:26:26;;;;;;;10.27;1.67;;;17.40;61.80;;;;;;10549665;28;20095;-56
2021/05/06 19:31:27;;;;;;;7.22;1.80;;;17.40;61.70;;;;;;10566251;28;20542;-57
2021/05/06 19:36:28;;;;;;;4.22;1.52;;;17.50;61.60;;;;;;10566466;28;20122;-57
2021/05/06 19:41:31;;;;;;;3.53;1.45;;;17.50;61.50;;;;;;10564749;28;20491;-58
2021/05/06 19:47:05;;;;;;;4.75;1.60;;;17.50;61.40;;;;;;10545689;28;20031;-57
2021/05/06 19:52:07;;;;;;;3.70;1.80;;;17.50;61.30;;;;;;10565924;28;20085;-58
2021/05/06 19:57:08;;;;;;;5.00;1.77;;;17.50;61.10;;;;;;10564818;28;20027;-57
2021/05/06 20:02:09;;;;;;;5.15;1.48;;;17.50;61.10;;;;;;10536253;28;20051;-57
2021/05/06 20:07:10;;;;;;;4.18;1.70;;;17.50;61.00;;;;;;10545200;28;20388;-57
2021/05/06 20:12:10;;;;;;;2.35;1.25;;;17.50;61.00;;;;;;10568199;28;20542;-57
2021/05/06 20:17:21;;;;;;;2.88;1.48;;;17.50;60.90;;;;;;10542865;28;20032;-56
2021/05/06 20:22:21;;;;;;;3.53;1.98;;;17.50;60.80;;;;;;10552864;28;20031;-58
2021/05/06 20:27:22;;;;;;;2.85;1.60;;;17.50;60.80;;;;;;10553378;28;20032;-57
2021/05/06 20:32:23;;;;;;;2.45;1.00;;;17.50;60.60;;;;;;10542141;28;20043;-56
2021/05/06 20:37:24;;;;;;;1.90;0.98;;;17.50;60.50;;;;;;10523963;28;20399;-57
2021/05/06 20:42:28;;;;;;;1.98;1.10;;;17.50;60.50;;;;;;10522901;28;20038;-58
2021/05/06 20:47:28;;;;;;;2.85;1.08;;;17.50;60.50;;;;;;10547310;28;20028;-58
2021/05/06 20:52:29;;;;;;;2.00;1.20;;;17.50;60.50;;;;;;10541574;28;20115;-58
2021/05/06 20:57:30;;;;;;;3.95;0.90;;;17.50;60.50;;;;;;10506755;28;20032;-58
2021/05/06 21:02:31;;;;;;;2.88;0.85;;;17.50;60.40;;;;;;10545186;28;20027;-57
2021/05/06 21:07:36;;;;;;;1.98;1.23;;;17.50;60.40;;;;;;10541076;28;20081;-58
2021/05/06 21:12:37;;;;;;;1.20;0.80;;;17.50;60.30;;;;;;10565588;28;20035;-58
2021/05/06 21:17:38;;;;;;;1.75;0.95;;;17.60;60.30;;;;;;10545312;28;20392;-56
2021/05/06 21:22:39;;;;;;;1.88;1.00;;;17.60;60.20;;;;;;10580525;28;20114;-58
2021/05/06 21:27:39;;;;;;;1.90;0.93;;;17.50;60.20;;;;;;10548282;28;20024;-57
2021/05/06 21:32:40;;;;;;;3.22;0.95;;;17.60;60.10;;;;;;10521902;28;20445;-58
2021/05/06 21:37:40;;;;;;;2.40;1.00;;;17.60;60.10;;;;;;10521558;28;20519;-58
2021/05/06 21:42:41;;;;;;;2.10;1.27;;;17.60;60.10;;;;;;10557438;28;20115;-57
2021/05/06 21:47:42;;;;;;;1.70;0.82;;;17.50;60.00;;;;;;10549676;28;20542;-58
2021/05/06 21:52:43;;;;;;;3.40;0.75;;;17.60;60.00;;;;;;10554858;28;20110;-57
2021/05/06 21:57:43;;;;;;;1.38;0.70;;;17.60;60.00;;;;;;10539574;28;20494;-57
2021/05/06 22:02:44;;;;;;;1.85;1.08;;;17.60;60.00;;;;;;10548255;28;20031;-57
2021/05/06 22:07:45;;;;;;;1.20;0.60;;;17.60;59.80;;;;;;10539956;28;20148;-57
2021/05/06 22:12:46;;;;;;;1.90;0.82;;;17.60;59.70;;;;;;10566762;28;20056;-58
2021/05/06 22:17:47;;;;;;;1.95;0.60;;;17.60;59.70;;;;;;10558074;28;20135;-58
2021/05/06 22:22:47;;;;;;;1.30;0.75;;;17.60;59.70;;;;;;10529579;28;20043;-58
2021/05/06 22:27:48;;;;;;;1.73;0.77;;;17.60;59.70;;;;;;10547192;28;20027;-57
2021/05/06 22:32:49;;;;;;;2.70;0.93;;;17.60;59.60;;;;;;10560688;28;20033;-58
2021/05/06 22:37:51;;;;;;;2.75;1.20;;;17.60;59.60;;;;;;10564180;28;20081;-58
2021/05/06 22:42:53;;;;;;;2.53;0.80;;;17.60;59.60;;;;;;10546921;28;20111;-57
2021/05/06 22:47:54;;;;;;;3.50;1.05;;;17.50;59.60;;;;;;10560439;28;20059;-57
2021/05/06 22:52:55;;;;;;;1.20;0.95;;;17.60;59.50;;;;;;10546669;28;20110;-58
2021/05/06 22:57:57;;;;;;;1.58;0.68;;;17.60;59.50;;;;;;10545954;28;20090;-58
2021/05/06 23:02:58;;;;;;;1.67;0.80;;;17.60;59.40;;;;;;10562885;28;20077;-58
2021/05/06 23:08:00;;;;;;;1.95;0.70;;;17.60;59.30;;;;;;10576316;28;20585;-56
2021/05/06 23:13:00;;;;;;;1.60;0.90;;;17.60;59.40;;;;;;10550036;28;20043;-56
2021/05/06 23:18:01;;;;;;;5.82;1.02;;;17.60;59.30;;;;;;10545332;28;20067;-57
2021/05/06 23:23:02;;;;;;;1.65;0.57;;;17.60;59.30;;;;;;10545463;28;20487;-57
2021/05/06 23:28:03;;;;;;;1.88;1.17;;;17.60;59.20;;;;;;10545137;28;20502;-57
2021/05/06 23:33:04;;;;;;;1.38;0.60;;;17.60;59.20;;;;;;10567523;28;20161;-57
2021/05/06 23:38:05;;;;;;;2.38;0.70;;;17.60;59.20;;;;;;10574450;28;20036;-58
2021/05/06 23:43:07;;;;;;;1.65;0.60;;;17.60;59.20;;;;;;10557906;28;20036;-57
2021/05/06 23:48:18;;;;;;;1.48;0.73;;;17.60;59.20;;;;;;10543671;28;20027;-57
2021/05/06 23:53:20;;;;;;;1.25;0.60;;;17.60;59.10;;;;;;10544910;28;20034;-57
2021/05/06 23:58:30;;;;;;;1.10;0.60;;;17.60;59.00;;;;;;10543453;28;20031;-57
